Time;durP1;ratioP1;P1;durP2;ratioP2;P2;SDS_P1;SDS_P2;PMS_P1;PMS_P2;Temp;Humidity;BMP_temperature;BMP_pressure;BME280_temperature;BME280_humidity;BME280_pressure;Samples;Min_cycle;Max_cycle;Signal;HPM_P1;HPM_P2
2021/08/15 00:00:50;;;;;;;15.40;13.80;;;19.70;99.90;;;;;;2040806;29;20077;-71
2021/08/15 00:01:51;;;;;;;16.02;13.80;;;19.70;99.90;;;;;;2041166;29;20059;-72
2021/08/15 00:02:51;;;;;;;17.50;14.00;;;19.70;99.90;;;;;;2041108;29;20032;-72
2021/08/15 00:03:52;;;;;;;15.38;13.77;;;19.70;99.90;;;;;;2040780;29;20031;-71
2021/08/15 00:04:52;;;;;;;16.80;13.85;;;19.70;99.90;;;;;;2041224;29;20111;-73
2021/08/15 00:05:53;;;;;;;16.63;13.90;;;19.70;99.90;;;;;;2040686;29;20024;-72
2021/08/15 00:06:54;;;;;;;16.20;14.13;;;19.70;99.90;;;;;;2040724;29;20043;-72
2021/08/15 00:07:54;;;;;;;17.00;13.48;;;19.60;99.90;;;;;;2040398;29;20071;-74
2021/08/15 00:08:55;;;;;;;16.77;13.98;;;19.60;99.90;;;;;;2040364;29;20035;-74
2021/08/15 00:09:55;;;;;;;15.00;13.02;;;19.70;99.90;;;;;;2041114;29;20019;-72
2021/08/15 00:10:56;;;;;;;17.75;14.00;;;19.60;99.90;;;;;;2041376;29;20047;-71
2021/08/15 00:11:57;;;;;;;13.82;12.32;;;19.60;99.90;;;;;;2041462;29;20027;-72
2021/08/15 00:12:58;;;;;;;15.90;13.30;;;19.60;99.90;;;;;;2041270;29;20059;-72
2021/08/15 00:13:59;;;;;;;16.17;12.77;;;19.60;99.90;;;;;;2040952;29;20023;-72
2021/08/15 00:15:00;;;;;;;15.35;13.05;;;19.60;99.90;;;;;;2041153;29;20063;-72
2021/08/15 00:16:01;;;;;;;15.00;13.20;;;19.50;99.90;;;;;;2040555;29;20110;-73
2021/08/15 00:17:02;;;;;;;14.70;12.80;;;19.50;99.90;;;;;;2040912;29;20032;-72
2021/08/15 00:18:02;;;;;;;15.90;12.88;;;19.50;99.90;;;;;;2040741;29;20027;-72
2021/08/15 00:19:05;;;;;;;17.80;13.55;;;19.50;99.90;;;;;;2040647;29;20028;-73
2021/08/15 00:20:07;;;;;;;16.70;12.85;;;19.50;99.90;;;;;;2040266;29;20475;-72
2021/08/15 00:21:08;;;;;;;16.63;13.50;;;19.50;99.90;;;;;;2040457;29;20519;-73
2021/08/15 00:22:11;;;;;;;17.15;13.32;;;19.50;99.90;;;;;;2041090;29;20027;-73
2021/08/15 00:23:11;;;;;;;14.73;12.98;;;19.50;99.90;;;;;;2040987;29;20051;-73
2021/08/15 00:24:12;;;;;;;15.60;12.95;;;19.50;99.90;;;;;;2040178;29;20030;-73
2021/08/15 00:25:16;;;;;;;15.95;13.00;;;19.40;99.90;;;;;;2040505;29;20488;-73
2021/08/15 00:26:16;;;;;;;16.08;12.75;;;19.40;99.90;;;;;;2040276;29;20086;-73
2021/08/15 00:27:17;;;;;;;17.65;13.27;;;19.40;99.90;;;;;;2040202;29;20163;-73
2021/08/15 00:28:18;;;;;;;15.43;12.80;;;19.40;99.90;;;;;;2039821;29;20131;-73
2021/08/15 00:29:19;;;;;;;15.75;13.30;;;19.40;99.90;;;;;;2039613;29;20030;-73
2021/08/15 00:30:19;;;;;;;14.82;13.05;;;19.40;99.90;;;;;;2040573;29;20487;-73
2021/08/15 00:31:20;;;;;;;16.08;13.05;;;19.40;99.90;;;;;;2039701;29;20090;-73
2021/08/15 00:32:20;;;;;;;15.50;12.73;;;19.30;99.90;;;;;;2039807;29;20399;-73
2021/08/15 00:33:21;;;;;;;15.70;12.65;;;19.30;99.90;;;;;;2040431;29;20032;-71
2021/08/15 00:34:21;;;;;;;15.70;13.07;;;19.30;99.90;;;;;;2039930;29;20040;-73
2021/08/15 00:35:22;;;;;;;15.82;13.80;;;19.30;99.90;;;;;;2039830;29;20107;-73
2021/08/15 00:36:23;;;;;;;15.43;13.10;;;19.30;99.90;;;;;;2039980;29;20480;-74
2021/08/15 00:37:23;;;;;;;14.68;12.88;;;19.20;99.90;;;;;;2040172;29;20074;-73
2021/08/15 00:38:24;;;;;;;18.75;13.30;;;19.20;99.90;;;;;;2040165;29;20875;-72
2021/08/15 00:39:24;;;;;;;15.63;13.20;;;19.20;99.90;;;;;;2040122;29;20055;-73
2021/08/15 00:40:26;;;;;;;15.10;13.35;;;19.20;99.90;;;;;;2040396;29;20648;-73
2021/08/15 00:41:27;;;;;;;16.45;13.30;;;19.20;99.90;;;;;;2040131;29;20166;-73
2021/08/15 00:42:27;;;;;;;14.38;12.63;;;19.20;99.90;;;;;;2040240;29;20032;-72
2021/08/15 00:43:31;;;;;;;16.73;13.07;;;19.20;99.90;;;;;;2040309;29;20449;-73
2021/08/15 00:44:32;;;;;;;14.90;12.88;;;19.20;99.90;;;;;;2040170;29;20027;-73
2021/08/15 00:45:33;;;;;;;14.60;12.82;;;19.20;99.90;;;;;;2040387;29;20031;-73
2021/08/15 00:46:34;;;;;;;16.85;13.30;;;19.20;99.90;;;;;;2040905;29;20048;-73
2021/08/15 00:47:34;;;;;;;13.98;12.40;;;19.20;99.90;;;;;;2041783;29;20032;-75
2021/08/15 00:48:35;;;;;;;15.45;13.50;;;19.10;99.90;;;;;;2041109;29;20510;-73
2021/08/15 00:49:35;;;;;;;16.08;13.50;;;19.20;99.90;;;;;;2039684;29;20047;-73
2021/08/15 00:50:37;;;;;;;15.55;13.55;;;19.20;99.90;;;;;;2040311;29;20107;-72
2021/08/15 00:51:38;;;;;;;16.77;13.95;;;19.20;99.90;;;;;;2039393;29;20403;-74
2021/08/15 00:52:39;;;;;;;17.55;14.15;;;19.10;99.90;;;;;;2039575;29;20078;-75
2021/08/15 00:53:40;;;;;;;16.65;14.27;;;19.20;99.90;;;;;;2039816;29;20035;-72
2021/08/15 00:54:42;;;;;;;15.75;13.65;;;19.20;99.90;;;;;;2040251;29;20039;-73
2021/08/15 00:55:44;;;;;;;16.90;13.95;;;19.10;99.90;;;;;;2040386;29;20039;-73
2021/08/15 00:56:50;;;;;;;16.48;14.15;;;19.10;99.90;;;;;;2040297;29;20083;-74
2021/08/15 00:57:51;;;;;;;19.63;14.55;;;19.10;99.90;;;;;;2040164;29;20182;-75
2021/08/15 00:58:52;;;;;;;16.50;14.68;;;19.10;99.90;;;;;;2040134;29;20557;-74
2021/08/15 00:59:52;;;;;;;17.25;14.73;;;19.10;99.90;;;;;;2040257;29;20032;-74
2021/08/15 01:00:53;;;;;;;18.42;14.85;;;19.10;99.90;;;;;;2040080;29;20031;-73
2021/08/15 01:01:55;;;;;;;19.45;15.13;;;19.00;99.90;;;;;;2040291;29;20691;-74
2021/08/15 01:03:00;;;;;;;19.45;15.50;;;19.10;99.90;;;;;;2040294;29;20028;-74
2021/08/15 01:04:04;;;;;;;18.33;15.77;;;19.00;99.90;;;;;;2040305;29;20078;-74
2021/08/15 01:05:05;;;;;;;17.38;15.18;;;19.00;99.90;;;;;;2040237;29;20406;-74
2021/08/15 01:06:07;;;;;;;17.63;15.60;;;19.00;99.90;;;;;;2040241;29;20456;-74
2021/08/15 01:07:08;;;;;;;16.90;15.00;;;19.00;99.90;;;;;;2040283;29;20071;-74
2021/08/15 01:08:08;;;;;;;18.13;14.88;;;18.90;99.90;;;;;;2040372;29;20119;-74
2021/08/15 01:09:09;;;;;;;16.20;14.13;;;18.90;99.90;;;;;;2040180;29;20035;-75
2021/08/15 01:10:11;;;;;;;15.80;14.10;;;18.90;99.90;;;;;;2041946;29;20040;-74
2021/08/15 01:11:12;;;;;;;16.75;14.35;;;18.90;99.90;;;;;;2041574;29;20079;-74
2021/08/15 01:12:12;;;;;;;15.93;13.70;;;18.90;99.90;;;;;;2040966;29;20107;-74
2021/08/15 01:13:13;;;;;;;15.13;13.52;;;18.90;99.90;;;;;;2041035;29;20436;-74
2021/08/15 01:14:14;;;;;;;17.55;13.60;;;18.90;99.90;;;;;;2041544;29;20562;-74
2021/08/15 01:15:16;;;;;;;15.63;13.32;;;18.90;99.90;;;;;;2041537;29;20055;-74
2021/08/15 01:16:16;;;;;;;15.43;13.10;;;18.90;99.90;;;;;;2041582;29;20028;-74
2021/08/15 01:17:17;;;;;;;17.17;13.45;;;18.90;99.90;;;;;;2041637;29;20159;-74
2021/08/15 01:18:29;;;;;;;16.05;13.88;;;18.90;99.90;;;;;;2041536;29;20514;-74
2021/08/15 01:19:30;;;;;;;16.20;13.27;;;18.80;99.90;;;;;;2041286;29;20043;-75
2021/08/15 01:20:31;;;;;;;17.58;13.32;;;18.80;99.90;;;;;;2041528;29;20082;-74
2021/08/15 01:21:31;;;;;;;16.20;13.23;;;18.80;99.90;;;;;;2041887;29;20090;-73
2021/08/15 01:22:42;;;;;;;18.75;13.73;;;18.80;99.90;;;;;;2042182;29;20030;-74
2021/08/15 01:23:45;;;;;;;14.70;13.10;;;18.80;99.90;;;;;;2042346;29;20028;-72
2021/08/15 01:24:46;;;;;;;14.23;12.68;;;18.80;99.90;;;;;;2042115;29;20042;-72
2021/08/15 01:25:46;;;;;;;14.60;12.57;;;18.80;99.90;;;;;;2042322;29;20059;-72
2021/08/15 01:26:48;;;;;;;14.15;12.52;;;18.80;99.90;;;;;;2042166;29;20059;-72
2021/08/15 01:27:50;;;;;;;13.48;12.07;;;18.80;99.90;;;;;;2042248;29;20032;-72
2021/08/15 01:28:52;;;;;;;14.18;12.48;;;18.70;99.90;;;;;;2042162;29;20372;-73
2021/08/15 01:29:53;;;;;;;14.85;12.82;;;18.70;99.90;;;;;;2041573;29;20028;-72
2021/08/15 01:30:53;;;;;;;14.10;12.57;;;18.70;99.90;;;;;;2041327;29;20116;-77
2021/08/15 01:31:55;;;;;;;15.73;12.93;;;18.70;99.90;;;;;;2042089;29;20035;-72
2021/08/15 01:32:55;;;;;;;15.30;13.20;;;18.70;99.90;;;;;;2042001;29;20407;-75
2021/08/15 01:33:56;;;;;;;16.25;12.98;;;18.70;99.90;;;;;;2041313;29;20034;-72
2021/08/15 01:34:57;;;;;;;15.77;13.15;;;18.70;99.90;;;;;;2041518;29;20028;-72
2021/08/15 01:35:59;;;;;;;14.75;13.00;;;18.70;99.90;;;;;;2042158;29;20034;-74
2021/08/15 01:37:00;;;;;;;14.77;12.75;;;18.70;99.90;;;;;;2042167;29;20067;-73
2021/08/15 01:38:00;;;;;;;14.93;12.75;;;18.60;99.90;;;;;;2041461;29;20511;-73
2021/08/15 01:41:17;;;;;;;14.68;13.07;;;18.60;99.90;;;;;;2041828;29;20428;-72
2021/08/15 01:42:18;;;;;;;15.52;13.00;;;18.60;99.90;;;;;;2041199;29;20106;-74
2021/08/15 01:43:19;;;;;;;15.77;13.52;;;18.60;99.90;;;;;;2041213;29;20415;-75
2021/08/15 01:44:19;;;;;;;14.60;13.00;;;18.60;99.90;;;;;;2040841;29;20027;-74
2021/08/15 01:45:20;;;;;;;17.50;13.50;;;18.50;99.90;;;;;;2041577;29;20031;-74
2021/08/15 01:46:22;;;;;;;13.82;12.40;;;18.50;99.90;;;;;;2041834;29;20033;-74
2021/08/15 01:47:23;;;;;;;15.23;13.25;;;18.50;99.90;;;;;;2042051;29;20031;-74
2021/08/15 01:48:24;;;;;;;16.38;13.50;;;18.50;99.90;;;;;;2042508;29;20471;-73
2021/08/15 01:49:24;;;;;;;14.68;12.85;;;18.50;99.90;;;;;;2042530;29;20051;-73
2021/08/15 01:50:25;;;;;;;15.80;13.48;;;18.50;99.90;;;;;;2041387;29;20039;-73
2021/08/15 01:51:26;;;;;;;14.75;13.05;;;18.50;99.90;;;;;;2041353;29;20038;-73
2021/08/15 01:52:27;;;;;;;16.70;12.20;;;18.50;99.90;;;;;;2041403;29;20034;-73
2021/08/15 01:53:27;;;;;;;15.23;13.45;;;18.50;99.90;;;;;;2040599;29;20046;-73
2021/08/15 01:54:28;;;;;;;15.43;13.00;;;18.50;99.90;;;;;;2040461;29;20046;-73
2021/08/15 01:55:28;;;;;;;15.82;13.20;;;18.50;99.90;;;;;;2040559;29;20038;-74
2021/08/15 01:56:30;;;;;;;17.70;13.10;;;18.50;99.90;;;;;;2040712;29;20207;-73
2021/08/15 01:57:30;;;;;;;14.98;13.38;;;18.50;99.90;;;;;;2041461;29;20419;-73
2021/08/15 01:58:32;;;;;;;17.40;13.38;;;18.50;99.90;;;;;;2041400;29;20031;-73
2021/08/15 01:59:32;;;;;;;15.68;13.38;;;18.40;99.90;;;;;;2040914;29;20411;-73
2021/08/15 02:00:34;;;;;;;16.02;13.18;;;18.40;99.90;;;;;;2041581;29;20031;-73
2021/08/15 02:01:35;;;;;;;17.13;13.18;;;18.40;99.90;;;;;;2041573;29;20031;-73
2021/08/15 02:02:40;;;;;;;17.08;13.52;;;18.40;99.90;;;;;;2041474;29;20404;-73
2021/08/15 02:03:40;;;;;;;16.58;13.00;;;18.40;99.90;;;;;;2041549;29;20036;-73
2021/08/15 02:04:41;;;;;;;14.95;13.32;;;18.40;99.90;;;;;;2042398;29;20047;-74
2021/08/15 02:05:43;;;;;;;18.35;13.35;;;18.40;99.90;;;;;;2041883;29;20055;-73
2021/08/15 02:06:43;;;;;;;14.48;12.95;;;18.40;99.90;;;;;;2041149;29;20024;-73
2021/08/15 02:07:45;;;;;;;15.77;13.40;;;18.40;99.90;;;;;;2040734;29;20051;-73
2021/08/15 02:08:48;;;;;;;16.55;13.02;;;18.40;99.90;;;;;;2040544;29;20167;-73
2021/08/15 02:09:49;;;;;;;16.40;13.15;;;18.40;99.90;;;;;;2040610;29;20031;-73
2021/08/15 02:10:50;;;;;;;17.33;13.57;;;18.40;99.90;;;;;;2041120;29;20031;-73
2021/08/15 02:11:51;;;;;;;16.35;13.40;;;18.40;99.90;;;;;;2041215;29;20055;-73
2021/08/15 02:12:52;;;;;;;15.15;13.10;;;18.40;99.90;;;;;;2041282;29;20054;-74
2021/08/15 02:13:53;;;;;;;15.60;13.00;;;18.30;99.90;;;;;;2041299;29;20500;-74
2021/08/15 02:14:53;;;;;;;16.08;12.77;;;18.30;99.90;;;;;;2041117;29;20119;-73
2021/08/15 02:15:54;;;;;;;16.98;14.10;;;18.30;99.90;;;;;;2040521;29;20036;-73
2021/08/15 02:16:55;;;;;;;20.20;13.82;;;18.30;99.90;;;;;;2040547;29;20051;-73
2021/08/15 02:17:55;;;;;;;16.10;13.45;;;18.30;99.90;;;;;;2041259;29;20030;-73
2021/08/15 02:18:56;;;;;;;19.33;13.73;;;18.20;99.90;;;;;;2040628;29;20492;-73
2021/08/15 02:19:56;;;;;;;15.30;13.45;;;18.20;99.90;;;;;;2040939;29;20085;-74
2021/08/15 02:20:57;;;;;;;18.13;13.57;;;18.20;99.90;;;;;;2040951;29;20031;-73
2021/08/15 02:21:57;;;;;;;16.77;13.32;;;18.20;99.90;;;;;;2041138;29;20490;-73
2021/08/15 02:22:59;;;;;;;16.92;13.38;;;18.20;99.90;;;;;;2041108;29;20035;-74
2021/08/15 02:23:59;;;;;;;16.08;13.30;;;18.20;99.90;;;;;;2041201;29;20062;-74
2021/08/15 02:25:00;;;;;;;14.80;13.15;;;18.20;99.90;;;;;;2041104;29;20095;-73
2021/08/15 02:26:01;;;;;;;16.35;13.95;;;18.20;99.90;;;;;;2040995;29;20051;-74
2021/08/15 02:27:02;;;;;;;17.10;13.23;;;18.20;99.90;;;;;;2040879;29;20126;-73
2021/08/15 02:28:04;;;;;;;16.05;12.55;;;18.10;99.90;;;;;;2040699;29;20043;-74
2021/08/15 02:29:05;;;;;;;16.13;12.95;;;18.10;99.90;;;;;;2041341;29;20074;-74
2021/08/15 02:30:07;;;;;;;14.32;12.65;;;18.10;99.90;;;;;;2041336;29;20125;-74
2021/08/15 02:31:08;;;;;;;16.65;13.15;;;18.10;99.90;;;;;;2041651;29;20032;-73
2021/08/15 02:32:08;;;;;;;17.25;13.60;;;18.10;99.90;;;;;;2040833;29;20032;-73
2021/08/15 02:33:09;;;;;;;15.48;12.52;;;18.00;99.90;;;;;;2040741;29;20071;-73
2021/08/15 02:34:10;;;;;;;15.07;13.02;;;18.00;99.90;;;;;;2041352;29;20483;-73
2021/08/15 02:35:13;;;;;;;15.15;12.93;;;18.00;99.90;;;;;;2040922;29;20092;-73
2021/08/15 02:36:13;;;;;;;15.68;13.25;;;18.00;99.90;;;;;;2040817;29;20031;-73
2021/08/15 02:37:14;;;;;;;18.00;13.85;;;18.00;99.90;;;;;;2041372;29;20502;-72
2021/08/15 02:38:14;;;;;;;17.85;13.95;;;18.00;99.90;;;;;;2040959;29;20020;-73
2021/08/15 02:39:15;;;;;;;16.35;13.55;;;18.00;99.90;;;;;;2040063;29;20464;-73
2021/08/15 02:40:18;;;;;;;15.40;13.50;;;17.90;99.90;;;;;;2040325;29;20046;-73
2021/08/15 02:41:18;;;;;;;15.75;13.60;;;17.90;99.90;;;;;;2040438;29;20111;-73
2021/08/15 02:42:19;;;;;;;15.77;13.48;;;17.90;99.90;;;;;;2040887;29;20038;-74
2021/08/15 02:43:20;;;;;;;15.75;13.18;;;17.90;99.90;;;;;;2040773;29;20031;-73
2021/08/15 02:44:20;;;;;;;15.68;13.20;;;17.90;99.90;;;;;;2040985;29;20020;-73
2021/08/15 02:45:23;;;;;;;16.02;13.38;;;17.90;99.90;;;;;;2040801;29;20399;-73
2021/08/15 02:46:24;;;;;;;15.85;13.13;;;17.90;99.90;;;;;;2040256;29;20055;-73
2021/08/15 02:47:24;;;;;;;16.52;13.45;;;17.90;99.90;;;;;;2040248;29;20567;-74
2021/08/15 02:48:27;;;;;;;17.35;13.15;;;17.90;99.90;;;;;;2040863;29;20409;-73
2021/08/15 02:49:27;;;;;;;15.25;13.27;;;17.90;99.90;;;;;;2040306;29;20082;-75
2021/08/15 02:50:28;;;;;;;16.40;13.60;;;17.90;99.90;;;;;;2040973;29;20039;-74
2021/08/15 02:51:29;;;;;;;15.73;13.13;;;17.90;99.90;;;;;;2041072;29;20048;-74
2021/08/15 02:52:29;;;;;;;15.80;12.43;;;17.90;99.90;;;;;;2042785;29;20047;-74
2021/08/15 02:53:30;;;;;;;17.67;13.52;;;17.80;99.90;;;;;;2044654;29;20051;-74
2021/08/15 02:54:30;;;;;;;17.45;13.75;;;17.80;99.90;;;;;;2045127;29;20040;-74
2021/08/15 02:55:31;;;;;;;15.65;12.73;;;17.80;99.90;;;;;;2045969;29;20052;-74
2021/08/15 02:56:31;;;;;;;16.13;13.18;;;17.80;99.90;;;;;;2046835;29;20319;-74
2021/08/15 02:57:32;;;;;;;15.90;13.02;;;17.80;99.90;;;;;;2046850;29;20042;-74
2021/08/15 02:58:33;;;;;;;16.85;13.80;;;17.80;99.90;;;;;;2048399;29;20028;-74
2021/08/15 02:59:39;;;;;;;14.20;12.48;;;17.80;99.90;;;;;;2048177;29;20035;-74
2021/08/15 03:00:39;;;;;;;15.13;12.60;;;17.80;99.90;;;;;;2049115;29;20042;-74
2021/08/15 03:01:40;;;;;;;13.98;12.45;;;17.80;99.90;;;;;;2048274;29;20028;-74
2021/08/15 03:02:41;;;;;;;15.90;13.50;;;17.80;99.90;;;;;;2047482;29;20448;-74
2021/08/15 03:03:41;;;;;;;14.40;12.50;;;17.80;99.90;;;;;;2041461;29;20036;-74
2021/08/15 03:04:46;;;;;;;14.98;12.90;;;17.80;99.90;;;;;;2040592;29;20028;-74
2021/08/15 03:05:48;;;;;;;14.85;13.00;;;17.70;99.90;;;;;;2040425;29;20020;-74
2021/08/15 03:06:48;;;;;;;15.75;13.63;;;17.70;99.90;;;;;;2041387;29;20019;-74
2021/08/15 03:07:49;;;;;;;16.50;13.60;;;17.70;99.90;;;;;;2041282;29;20039;-74
2021/08/15 03:08:49;;;;;;;15.00;13.40;;;17.70;99.90;;;;;;2041146;29;20107;-73
2021/08/15 03:09:50;;;;;;;18.58;13.80;;;17.70;99.90;;;;;;2040452;29;20051;-74
2021/08/15 03:10:51;;;;;;;17.50;13.98;;;17.70;99.90;;;;;;2041056;29;20032;-74
2021/08/15 03:11:51;;;;;;;15.13;13.50;;;17.70;99.90;;;;;;2041116;29;20062;-74
2021/08/15 03:12:52;;;;;;;14.65;13.05;;;17.60;99.90;;;;;;2041159;29;20036;-73
2021/08/15 03:13:52;;;;;;;14.10;12.45;;;17.70;99.90;;;;;;2040432;29;20174;-73
2021/08/15 03:14:53;;;;;;;16.73;13.25;;;17.60;99.90;;;;;;2040503;29;20094;-73
2021/08/15 03:15:53;;;;;;;18.77;13.45;;;17.60;99.90;;;;;;2040964;29;20035;-74
2021/08/15 03:16:54;;;;;;;14.95;12.95;;;17.60;99.90;;;;;;2040974;29;20036;-73
2021/08/15 03:17:54;;;;;;;14.93;12.70;;;17.60;99.90;;;;;;2040783;29;20039;-73
2021/08/15 03:18:58;;;;;;;19.02;13.02;;;17.60;99.90;;;;;;2040110;29;20036;-74
2021/08/15 03:19:59;;;;;;;15.15;12.82;;;17.60;99.90;;;;;;2040848;29;20032;-73
2021/08/15 03:20:59;;;;;;;16.38;13.45;;;17.60;99.90;;;;;;2040886;29;20038;-73
2021/08/15 03:22:00;;;;;;;17.02;12.88;;;17.60;99.90;;;;;;2040771;29;20474;-74
2021/08/15 03:23:00;;;;;;;16.08;12.75;;;17.60;99.90;;;;;;2040805;29;20036;-73
2021/08/15 03:24:02;;;;;;;15.13;12.75;;;17.60;99.90;;;;;;2040019;29;20074;-74
2021/08/15 03:25:03;;;;;;;14.60;12.40;;;17.60;99.90;;;;;;2040180;29;20555;-73
2021/08/15 03:26:06;;;;;;;14.00;12.27;;;17.60;99.90;;;;;;2040081;29;20047;-74
2021/08/15 03:27:07;;;;;;;13.60;12.07;;;17.60;99.90;;;;;;2040091;29;20805;-73
2021/08/15 03:28:07;;;;;;;15.95;12.40;;;17.50;99.90;;;;;;2040064;29;20059;-74
2021/08/15 03:29:08;;;;;;;13.43;12.02;;;17.60;99.90;;;;;;2039426;29;20060;-74
2021/08/15 03:30:09;;;;;;;15.70;12.05;;;17.50;99.90;;;;;;2040864;29;20157;-73
2021/08/15 03:31:10;;;;;;;14.70;12.77;;;17.50;99.90;;;;;;2040781;29;20432;-73
2021/08/15 03:32:10;;;;;;;14.77;12.38;;;17.50;99.90;;;;;;2040280;29;20032;-74
2021/08/15 03:33:11;;;;;;;14.63;12.40;;;17.50;99.90;;;;;;2040829;29;20024;-74
2021/08/15 03:34:13;;;;;;;13.35;11.90;;;17.50;99.90;;;;;;2040747;29;20023;-74
2021/08/15 03:35:13;;;;;;;13.43;12.02;;;17.50;99.90;;;;;;2040180;29;20035;-74
2021/08/15 03:36:14;;;;;;;17.83;13.30;;;17.50;99.90;;;;;;2040016;29;20026;-74
2021/08/15 03:37:15;;;;;;;15.38;12.43;;;17.50;99.90;;;;;;2040729;29;20024;-74
2021/08/15 03:38:16;;;;;;;15.35;12.98;;;17.40;99.90;;;;;;2040626;29;20063;-72
2021/08/15 03:39:17;;;;;;;16.63;12.85;;;17.50;99.90;;;;;;2039898;29;20383;-73
2021/08/15 03:40:17;;;;;;;14.55;12.18;;;17.40;99.90;;;;;;2040596;29;20027;-72
2021/08/15 03:41:18;;;;;;;14.57;12.55;;;17.40;99.90;;;;;;2040604;29;20510;-72
2021/08/15 03:42:19;;;;;;;15.32;12.18;;;17.40;99.90;;;;;;2040458;29;20035;-72
2021/08/15 03:43:19;;;;;;;15.25;13.00;;;17.40;99.90;;;;;;2040576;29;20032;-73
2021/08/15 03:44:20;;;;;;;16.98;12.82;;;17.40;99.90;;;;;;2040646;29;20063;-72
2021/08/15 03:45:21;;;;;;;15.82;13.35;;;17.40;99.90;;;;;;2040633;29;20059;-73
2021/08/15 03:46:22;;;;;;;16.60;12.60;;;17.40;99.90;;;;;;2040646;29;20050;-74
2021/08/15 03:47:23;;;;;;;15.43;12.30;;;17.40;99.90;;;;;;2040254;29;20024;-73
2021/08/15 03:48:23;;;;;;;16.52;12.93;;;17.40;99.90;;;;;;2032138;29;20035;-74
2021/08/15 03:49:24;;;;;;;15.15;13.00;;;17.40;99.90;;;;;;2031850;29;20424;-72
2021/08/15 03:50:25;;;;;;;14.95;12.30;;;17.40;99.90;;;;;;2040836;29;20035;-72
2021/08/15 03:51:25;;;;;;;14.68;12.85;;;17.40;99.90;;;;;;2041211;29;20031;-73
2021/08/15 03:52:26;;;;;;;13.63;11.80;;;17.40;99.90;;;;;;2041379;29;20066;-71
2021/08/15 03:53:27;;;;;;;14.40;12.68;;;17.40;99.90;;;;;;2041329;29;20028;-72
2021/08/15 03:54:27;;;;;;;15.20;12.88;;;17.40;99.90;;;;;;2041568;29;20068;-72
2021/08/15 03:55:28;;;;;;;14.75;11.98;;;17.40;99.90;;;;;;2040754;29;20364;-72
2021/08/15 03:56:29;;;;;;;15.63;12.20;;;17.40;99.90;;;;;;2040452;29;20031;-72
2021/08/15 03:57:29;;;;;;;13.45;11.65;;;17.30;99.90;;;;;;2040767;29;20639;-74
2021/08/15 03:58:30;;;;;;;16.52;12.50;;;17.40;99.90;;;;;;2040212;29;20102;-72
2021/08/15 03:59:30;;;;;;;14.55;12.60;;;17.40;99.90;;;;;;2039077;29;20042;-72
2021/08/15 04:00:33;;;;;;;14.95;12.30;;;17.40;99.90;;;;;;2039916;29;20079;-73
2021/08/15 04:01:33;;;;;;;14.30;12.27;;;17.30;99.90;;;;;;2040026;29;20032;-74
2021/08/15 04:02:34;;;;;;;14.48;11.98;;;17.40;99.90;;;;;;2040577;29;20407;-74
2021/08/15 04:03:35;;;;;;;13.93;11.60;;;17.40;99.90;;;;;;2040276;29;20083;-71
2021/08/15 04:04:35;;;;;;;13.50;11.50;;;17.40;99.90;;;;;;2040356;29;20435;-71
2021/08/15 04:05:37;;;;;;;13.93;11.88;;;17.40;99.90;;;;;;2040658;29;20038;-73
2021/08/15 04:06:37;;;;;;;14.75;11.57;;;17.40;99.90;;;;;;2039829;29;20031;-73
2021/08/15 04:07:38;;;;;;;13.40;11.90;;;17.40;99.90;;;;;;2040164;29;20545;-73
2021/08/15 04:08:38;;;;;;;13.55;11.85;;;17.40;99.90;;;;;;2040526;29;20139;-73
2021/08/15 04:09:39;;;;;;;14.35;12.10;;;17.40;99.90;;;;;;2040154;29;20130;-73
2021/08/15 04:10:40;;;;;;;14.73;11.90;;;17.40;99.90;;;;;;2040718;29;20107;-73
2021/08/15 04:11:40;;;;;;;13.15;10.98;;;17.50;99.90;;;;;;2039797;29;20032;-73
2021/08/15 04:12:41;;;;;;;14.18;11.40;;;17.50;99.90;;;;;;2039689;29;20043;-73
2021/08/15 04:13:41;;;;;;;13.10;11.23;;;17.50;99.90;;;;;;2032005;29;20187;-72
2021/08/15 04:14:42;;;;;;;12.95;11.55;;;17.50;99.90;;;;;;2031938;29;20039;-73
2021/08/15 04:15:43;;;;;;;13.95;11.75;;;17.50;99.90;;;;;;2039757;29;20492;-72
2021/08/15 04:16:43;;;;;;;14.13;12.18;;;17.60;99.90;;;;;;2047790;29;20046;-73
2021/08/15 04:17:44;;;;;;;15.30;12.07;;;17.60;99.90;;;;;;2040237;29;20114;-72
2021/08/15 04:18:45;;;;;;;14.30;12.07;;;17.60;99.90;;;;;;2040107;29;20047;-72
2021/08/15 04:19:46;;;;;;;15.27;12.35;;;17.70;99.90;;;;;;2039786;29;20040;-72
2021/08/15 04:20:46;;;;;;;13.68;12.18;;;17.70;99.90;;;;;;2040504;29;20060;-73
2021/08/15 04:21:47;;;;;;;14.43;11.88;;;17.70;99.90;;;;;;2040405;29;20466;-73
2021/08/15 04:22:48;;;;;;;16.88;11.73;;;17.80;99.90;;;;;;2040495;29;20035;-73
2021/08/15 04:23:49;;;;;;;14.38;11.80;;;17.80;99.90;;;;;;2040663;29;20028;-72
2021/08/15 04:24:49;;;;;;;14.18;11.77;;;17.80;99.90;;;;;;2040415;29;20168;-72
2021/08/15 04:25:50;;;;;;;14.10;11.75;;;17.90;99.90;;;;;;2041012;29;20090;-72
2021/08/15 04:26:51;;;;;;;14.52;11.75;;;17.90;99.90;;;;;;2040459;29;20091;-73
2021/08/15 04:27:51;;;;;;;15.23;11.57;;;17.90;99.90;;;;;;2040558;29;20031;-72
2021/08/15 04:28:53;;;;;;;12.93;11.50;;;18.00;99.90;;;;;;2040749;29;20083;-73
2021/08/15 04:29:53;;;;;;;14.65;11.63;;;18.00;99.90;;;;;;2039370;29;20039;-72
2021/08/15 04:30:54;;;;;;;13.68;11.63;;;18.10;99.90;;;;;;2039758;29;20059;-73
2021/08/15 04:31:55;;;;;;;14.07;11.45;;;18.10;99.90;;;;;;2040503;29;20032;-73
2021/08/15 04:32:55;;;;;;;13.18;11.27;;;18.10;99.90;;;;;;2039814;29;20039;-73
2021/08/15 04:33:56;;;;;;;13.20;11.38;;;18.20;99.90;;;;;;2039783;29;20054;-73
2021/08/15 04:34:57;;;;;;;13.18;11.40;;;18.20;99.90;;;;;;2039855;29;20421;-73
2021/08/15 04:35:57;;;;;;;13.15;11.55;;;18.30;99.90;;;;;;2039591;29;20090;-73
2021/08/15 04:36:58;;;;;;;13.75;11.70;;;18.30;99.90;;;;;;2039781;29;20040;-73
2021/08/15 04:37:58;;;;;;;14.40;11.57;;;18.30;99.90;;;;;;2040411;29;20035;-73
2021/08/15 04:38:59;;;;;;;12.93;11.43;;;18.30;99.90;;;;;;2039498;29;20042;-73
2021/08/15 04:39:59;;;;;;;13.15;11.27;;;18.40;99.90;;;;;;2040310;29;20059;-74
2021/08/15 04:41:00;;;;;;;13.45;11.30;;;18.40;99.90;;;;;;2040700;29;20083;-73
2021/08/15 04:42:01;;;;;;;13.10;10.75;;;18.40;99.90;;;;;;2040333;29;20183;-72
2021/08/15 04:43:01;;;;;;;13.48;10.60;;;18.40;99.90;;;;;;2040359;29;20083;-73
2021/08/15 04:44:02;;;;;;;13.65;11.02;;;18.50;99.90;;;;;;2040349;29;20056;-72
2021/08/15 04:45:03;;;;;;;12.90;10.98;;;18.50;99.90;;;;;;2042696;29;20055;-71
2021/08/15 04:46:04;;;;;;;12.15;10.88;;;18.50;99.90;;;;;;2041313;29;20069;-71
2021/08/15 04:47:04;;;;;;;11.88;10.50;;;18.60;99.90;;;;;;2041235;29;20036;-71
2021/08/15 04:48:05;;;;;;;11.90;10.52;;;18.60;99.90;;;;;;2041939;29;20032;-71
2021/08/15 04:49:06;;;;;;;11.57;10.38;;;18.60;99.90;;;;;;2041157;29;20028;-72
2021/08/15 04:50:07;;;;;;;14.52;10.52;;;18.70;99.90;;;;;;2042048;29;20476;-71
2021/08/15 04:51:07;;;;;;;13.05;11.05;;;18.70;99.90;;;;;;2041725;29;20023;-72
2021/08/15 04:52:08;;;;;;;12.80;10.63;;;18.70;99.90;;;;;;2041968;29;20020;-71
2021/08/15 04:53:08;;;;;;;12.98;11.50;;;18.80;99.90;;;;;;2041932;29;20163;-71
2021/08/15 04:54:09;;;;;;;13.45;11.38;;;18.80;99.90;;;;;;2041854;29;20031;-71
2021/08/15 04:55:10;;;;;;;12.40;10.98;;;18.90;99.90;;;;;;2041300;29;20027;-72
2021/08/15 04:56:11;;;;;;;14.00;11.55;;;19.00;99.90;;;;;;2041279;29;20036;-72
2021/08/15 04:57:11;;;;;;;12.95;10.75;;;19.00;99.90;;;;;;2041902;29;20061;-71
2021/08/15 04:58:12;;;;;;;14.52;11.10;;;19.00;99.90;;;;;;2042087;29;20530;-72
2021/08/15 04:59:12;;;;;;;14.75;11.52;;;19.10;99.90;;;;;;2040484;29;20420;-71
2021/08/15 05:00:13;;;;;;;14.00;10.70;;;19.10;99.90;;;;;;2041480;29;20035;-71
2021/08/15 05:01:14;;;;;;;13.27;11.07;;;19.10;99.90;;;;;;2041363;29;20030;-72
2021/08/15 05:02:15;;;;;;;13.60;11.07;;;19.20;99.90;;;;;;2041164;29;20070;-71
2021/08/15 05:03:16;;;;;;;12.20;10.82;;;19.20;99.90;;;;;;2041255;29;20024;-71
2021/08/15 05:04:17;;;;;;;14.25;11.05;;;19.30;99.90;;;;;;2041850;29;20026;-72
2021/08/15 05:05:17;;;;;;;14.40;11.38;;;19.40;99.90;;;;;;2041513;29;20400;-71
2021/08/15 05:06:18;;;;;;;12.75;10.55;;;19.40;99.90;;;;;;2041340;29;20035;-71
2021/08/15 05:07:19;;;;;;;14.23;11.45;;;19.40;99.90;;;;;;2041719;29;20394;-71
2021/08/15 05:08:19;;;;;;;13.05;10.77;;;19.40;99.90;;;;;;2041796;29;20023;-71
2021/08/15 05:09:20;;;;;;;12.98;11.30;;;19.60;99.90;;;;;;2040934;29;20024;-71
2021/08/15 05:10:21;;;;;;;11.45;10.07;;;19.90;99.90;;;;;;2041907;29;20036;-71
2021/08/15 05:11:21;;;;;;;12.18;9.85;;;20.20;99.70;;;;;;2041648;29;20035;-71
2021/08/15 05:12:22;;;;;;;12.45;10.48;;;20.50;98.20;;;;;;2041778;29;20575;-71